sensor_id;sensor_type;location;lat;lon;timestamp;temperature;humidity
25058;DHT22;13057;50.978;11.034;2023-04-03T00:01:38;4.20;99.90
25058;DHT22;13057;50.978;11.034;2023-04-03T00:04:05;4.10;99.90
25058;DHT22;13057;50.978;11.034;2023-04-03T00:06:31;4.10;99.90
25058;DHT22;13057;50.978;11.034;2023-04-03T00:08:57;4.00;99.90
25058;DHT22;13057;50.978;11.034;2023-04-03T00:11:23;4.00;99.90
25058;DHT22;13057;50.978;11.034;2023-04-03T00:13:49;3.90;99.90
25058;DHT22;13057;50.978;11.034;2023-04-03T00:16:15;3.80;99.90
25058;DHT22;13057;50.978;11.034;2023-04-03T00:18:42;3.80;99.90
25058;DHT22;13057;50.978;11.034;2023-04-03T00:21:10;3.80;99.90
25058;DHT22;13057;50.978;11.034;2023-04-03T00:23:37;3.70;99.90
25058;DHT22;13057;50.978;11.034;2023-04-03T00:26:03;3.60;99.90
25058;DHT22;13057;50.978;11.034;2023-04-03T00:28:29;3.60;99.90
25058;DHT22;13057;50.978;11.034;2023-04-03T00:30:55;3.50;99.90
25058;DHT22;13057;50.978;11.034;2023-04-03T00:33:21;3.60;99.90
25058;DHT22;13057;50.978;11.034;2023-04-03T00:35:48;3.50;99.90
25058;DHT22;13057;50.978;11.034;2023-04-03T00:38:14;3.50;99.90
25058;DHT22;13057;50.978;11.034;2023-04-03T00:40:43;3.40;99.90
25058;DHT22;13057;50.978;11.034;2023-04-03T00:43:14;3.50;99.90
25058;DHT22;13057;50.978;11.034;2023-04-03T00:45:43;3.50;99.90
25058;DHT22;13057;50.978;11.034;2023-04-03T00:48:14;3.40;99.90
25058;DHT22;13057;50.978;11.034;2023-04-03T00:50:42;3.30;99.90
25058;DHT22;13057;50.978;11.034;2023-04-03T00:53:13;3.20;99.90
25058;DHT22;13057;50.978;11.034;2023-04-03T00:55:41;3.20;99.90
25058;DHT22;13057;50.978;11.034;2023-04-03T00:58:08;3.20;99.90
25058;DHT22;13057;50.978;11.034;2023-04-03T01:00:37;3.20;99.90
25058;DHT22;13057;50.978;11.034;2023-04-03T01:03:04;3.10;99.90
25058;DHT22;13057;50.978;11.034;2023-04-03T01:05:30;3.10;99.90
25058;DHT22;13057;50.978;11.034;2023-04-03T01:07:57;3.10;99.90
25058;DHT22;13057;50.978;11.034;2023-04-03T01:10:23;3.10;99.90
25058;DHT22;13057;50.978;11.034;2023-04-03T01:12:51;3.00;99.90
25058;DHT22;13057;50.978;11.034;2023-04-03T01:15:22;3.00;99.90
25058;DHT22;13057;50.978;11.034;2023-04-03T01:17:52;3.00;99.90
25058;DHT22;13057;50.978;11.034;2023-04-03T01:20:45;3.00;99.90
25058;DHT22;13057;50.978;11.034;2023-04-03T01:23:25;3.00;99.90
25058;DHT22;13057;50.978;11.034;2023-04-03T01:25:56;2.90;99.90
25058;DHT22;13057;50.978;11.034;2023-04-03T01:28:26;3.00;99.90
25058;DHT22;13057;50.978;11.034;2023-04-03T01:31:09;2.90;99.90
25058;DHT22;13057;50.978;11.034;2023-04-03T01:33:37;2.90;99.90
25058;DHT22;13057;50.978;11.034;2023-04-03T01:36:04;2.90;99.90
25058;DHT22;13057;50.978;11.034;2023-04-03T01:38:31;3.00;99.90
25058;DHT22;13057;50.978;11.034;2023-04-03T01:40:57;3.00;99.90
25058;DHT22;13057;50.978;11.034;2023-04-03T01:43:22;2.90;99.90
25058;DHT22;13057;50.978;11.034;2023-04-03T01:45:48;2.80;99.90
25058;DHT22;13057;50.978;11.034;2023-04-03T01:48:16;2.90;99.90
25058;DHT22;13057;50.978;11.034;2023-04-03T01:50:42;2.90;99.90
25058;DHT22;13057;50.978;11.034;2023-04-03T01:53:07;2.90;99.90
25058;DHT22;13057;50.978;11.034;2023-04-03T01:55:34;2.90;99.90
25058;DHT22;13057;50.978;11.034;2023-04-03T01:57:59;2.90;99.90
25058;DHT22;13057;50.978;11.034;2023-04-03T02:00:25;2.80;99.90
25058;DHT22;13057;50.978;11.034;2023-04-03T02:02:52;2.80;99.90
25058;DHT22;13057;50.978;11.034;2023-04-03T02:05:19;2.80;99.90
25058;DHT22;13057;50.978;11.034;2023-04-03T02:07:45;2.70;99.90
25058;DHT22;13057;50.978;11.034;2023-04-03T02:10:12;2.70;99.90
25058;DHT22;13057;50.978;11.034;2023-04-03T02:12:38;2.70;99.90
25058;DHT22;13057;50.978;11.034;2023-04-03T02:15:04;2.60;99.90
25058;DHT22;13057;50.978;11.034;2023-04-03T02:17:30;2.60;99.90
25058;DHT22;13057;50.978;11.034;2023-04-03T02:19:56;2.50;99.90
25058;DHT22;13057;50.978;11.034;2023-04-03T02:22:22;2.50;99.90
25058;DHT22;13057;50.978;11.034;2023-04-03T02:24:48;2.50;99.90
25058;DHT22;13057;50.978;11.034;2023-04-03T02:27:14;2.60;99.90
25058;DHT22;13057;50.978;11.034;2023-04-03T02:29:40;2.70;99.90
25058;DHT22;13057;50.978;11.034;2023-04-03T02:32:05;2.70;99.90
25058;DHT22;13057;50.978;11.034;2023-04-03T02:34:33;2.70;99.90
25058;DHT22;13057;50.978;11.034;2023-04-03T02:36:58;2.70;99.90
25058;DHT22;13057;50.978;11.034;2023-04-03T02:39:24;2.70;99.90
25058;DHT22;13057;50.978;11.034;2023-04-03T02:41:50;2.70;99.90
25058;DHT22;13057;50.978;11.034;2023-04-03T02:44:16;2.70;99.90
25058;DHT22;13057;50.978;11.034;2023-04-03T02:46:43;2.70;99.90
25058;DHT22;13057;50.978;11.034;2023-04-03T02:49:09;2.70;99.90
25058;DHT22;13057;50.978;11.034;2023-04-03T02:51:34;2.70;99.90
25058;DHT22;13057;50.978;11.034;2023-04-03T02:54:00;2.70;99.90
25058;DHT22;13057;50.978;11.034;2023-04-03T02:56:26;2.70;99.90
25058;DHT22;13057;50.978;11.034;2023-04-03T02:58:52;2.70;99.90
25058;DHT22;13057;50.978;11.034;2023-04-03T03:01:19;2.70;99.90
25058;DHT22;13057;50.978;11.034;2023-04-03T03:03:45;2.70;99.90
25058;DHT22;13057;50.978;11.034;2023-04-03T03:06:14;2.70;99.90
25058;DHT22;13057;50.978;11.034;2023-04-03T03:08:40;2.70;99.90
25058;DHT22;13057;50.978;11.034;2023-04-03T03:11:07;2.70;99.90
25058;DHT22;13057;50.978;11.034;2023-04-03T03:13:34;2.70;99.90
25058;DHT22;13057;50.978;11.034;2023-04-03T03:15:59;2.60;99.90
25058;DHT22;13057;50.978;11.034;2023-04-03T03:18:26;2.60;99.90
25058;DHT22;13057;50.978;11.034;2023-04-03T03:20:53;2.50;99.90
25058;DHT22;13057;50.978;11.034;2023-04-03T03:23:20;2.50;99.90
25058;DHT22;13057;50.978;11.034;2023-04-03T03:25:46;2.50;99.90
25058;DHT22;13057;50.978;11.034;2023-04-03T03:28:12;2.40;99.90
25058;DHT22;13057;50.978;11.034;2023-04-03T03:30:38;2.50;99.90
25058;DHT22;13057;50.978;11.034;2023-04-03T03:33:04;2.50;99.90
25058;DHT22;13057;50.978;11.034;2023-04-03T03:35:30;2.40;99.90
25058;DHT22;13057;50.978;11.034;2023-04-03T03:37:56;2.30;99.90
25058;DHT22;13057;50.978;11.034;2023-04-03T03:40:22;2.40;99.90
25058;DHT22;13057;50.978;11.034;2023-04-03T03:42:49;2.40;99.90
25058;DHT22;13057;50.978;11.034;2023-04-03T03:45:15;2.40;99.90
25058;DHT22;13057;50.978;11.034;2023-04-03T03:47:40;2.30;99.90
25058;DHT22;13057;50.978;11.034;2023-04-03T03:50:07;2.30;99.90
25058;DHT22;13057;50.978;11.034;2023-04-03T03:52:33;2.30;99.90
25058;DHT22;13057;50.978;11.034;2023-04-03T03:54:59;2.30;99.90
25058;DHT22;13057;50.978;11.034;2023-04-03T03:57:24;2.30;99.90
25058;DHT22;13057;50.978;11.034;2023-04-03T03:59:53;2.30;99.90
25058;DHT22;13057;50.978;11.034;2023-04-03T04:02:19;2.20;99.90
25058;DHT22;13057;50.978;11.034;2023-04-03T04:04:45;2.20;99.90
25058;DHT22;13057;50.978;11.034;2023-04-03T04:07:11;2.10;99.90
25058;DHT22;13057;50.978;11.034;2023-04-03T04:09:37;2.10;99.90
25058;DHT22;13057;50.978;11.034;2023-04-03T04:12:03;2.10;99.90
25058;DHT22;13057;50.978;11.034;2023-04-03T04:14:29;2.10;99.90
25058;DHT22;13057;50.978;11.034;2023-04-03T04:16:55;2.00;99.90
25058;DHT22;13057;50.978;11.034;2023-04-03T04:19:21;2.10;99.90
25058;DHT22;13057;50.978;11.034;2023-04-03T04:21:46;2.10;99.90
25058;DHT22;13057;50.978;11.034;2023-04-03T04:24:12;2.00;99.90
25058;DHT22;13057;50.978;11.034;2023-04-03T04:26:38;2.00;99.90
25058;DHT22;13057;50.978;11.034;2023-04-03T04:29:04;2.00;99.90
25058;DHT22;13057;50.978;11.034;2023-04-03T04:31:30;2.10;99.90
25058;DHT22;13057;50.978;11.034;2023-04-03T04:33:56;2.10;99.90
25058;DHT22;13057;50.978;11.034;2023-04-03T04:36:22;2.10;99.90
25058;DHT22;13057;50.978;11.034;2023-04-03T04:38:48;2.10;99.90
25058;DHT22;13057;50.978;11.034;2023-04-03T04:41:13;2.00;99.90
25058;DHT22;13057;50.978;11.034;2023-04-03T04:43:40;1.90;99.90
25058;DHT22;13057;50.978;11.034;2023-04-03T04:46:09;1.90;99.90
25058;DHT22;13057;50.978;11.034;2023-04-03T04:48:37;1.90;99.90
25058;DHT22;13057;50.978;11.034;2023-04-03T04:51:03;1.90;99.90
25058;DHT22;13057;50.978;11.034;2023-04-03T04:53:29;1.90;99.90
25058;DHT22;13057;50.978;11.034;2023-04-03T04:55:55;1.80;99.90
25058;DHT22;13057;50.978;11.034;2023-04-03T04:58:21;1.80;99.90
25058;DHT22;13057;50.978;11.034;2023-04-03T05:00:47;1.80;99.90
25058;DHT22;13057;50.978;11.034;2023-04-03T05:03:14;1.80;99.90
25058;DHT22;13057;50.978;11.034;2023-04-03T05:05:40;1.70;99.90
25058;DHT22;13057;50.978;11.034;2023-04-03T05:08:06;1.70;99.90
25058;DHT22;13057;50.978;11.034;2023-04-03T05:10:33;1.80;99.90
25058;DHT22;13057;50.978;11.034;2023-04-03T05:12:59;1.80;99.90
25058;DHT22;13057;50.978;11.034;2023-04-03T05:15:25;1.80;99.90
25058;DHT22;13057;50.978;11.034;2023-04-03T05:17:51;1.80;99.90
25058;DHT22;13057;50.978;11.034;2023-04-03T05:20:17;1.80;99.90
25058;DHT22;13057;50.978;11.034;2023-04-03T05:22:43;1.80;99.90
25058;DHT22;13057;50.978;11.034;2023-04-03T05:25:09;1.70;99.90
25058;DHT22;13057;50.978;11.034;2023-04-03T05:27:35;1.70;99.90
25058;DHT22;13057;50.978;11.034;2023-04-03T05:30:01;1.60;99.90
25058;DHT22;13057;50.978;11.034;2023-04-03T05:32:28;1.70;99.90
25058;DHT22;13057;50.978;11.034;2023-04-03T05:34:54;1.70;99.90
25058;DHT22;13057;50.978;11.034;2023-04-03T05:37:20;1.80;99.90
25058;DHT22;13057;50.978;11.034;2023-04-03T05:39:46;1.80;99.90
25058;DHT22;13057;50.978;11.034;2023-04-03T05:42:12;1.80;99.90
25058;DHT22;13057;50.978;11.034;2023-04-03T05:44:39;1.90;99.90
25058;DHT22;13057;50.978;11.034;2023-04-03T05:47:06;1.80;99.90
25058;DHT22;13057;50.978;11.034;2023-04-03T05:49:32;1.90;99.90
25058;DHT22;13057;50.978;11.034;2023-04-03T05:51:58;1.90;99.90
25058;DHT22;13057;50.978;11.034;2023-04-03T05:54:26;1.80;99.90
25058;DHT22;13057;50.978;11.034;2023-04-03T05:56:53;1.80;99.90
25058;DHT22;13057;50.978;11.034;2023-04-03T05:59:20;1.80;99.90
25058;DHT22;13057;50.978;11.034;2023-04-03T06:01:47;1.90;99.90
25058;DHT22;13057;50.978;11.034;2023-04-03T06:04:13;2.00;99.90
25058;DHT22;13057;50.978;11.034;2023-04-03T06:06:50;2.00;99.90
25058;DHT22;13057;50.978;11.034;2023-04-03T06:09:18;2.00;99.90
25058;DHT22;13057;50.978;11.034;2023-04-03T06:11:44;2.00;99.90
25058;DHT22;13057;50.978;11.034;2023-04-03T06:14:11;2.10;99.90
25058;DHT22;13057;50.978;11.034;2023-04-03T06:16:38;2.10;99.90
25058;DHT22;13057;50.978;11.034;2023-04-03T06:19:05;2.20;99.90
25058;DHT22;13057;50.978;11.034;2023-04-03T06:21:32;2.10;99.90
25058;DHT22;13057;50.978;11.034;2023-04-03T06:23:58;2.10;99.90
25058;DHT22;13057;50.978;11.034;2023-04-03T06:26:24;2.10;99.90
25058;DHT22;13057;50.978;11.034;2023-04-03T06:28:49;2.20;99.90
25058;DHT22;13057;50.978;11.034;2023-04-03T06:31:15;2.20;99.90
25058;DHT22;13057;50.978;11.034;2023-04-03T06:33:42;2.10;99.90
25058;DHT22;13057;50.978;11.034;2023-04-03T06:36:10;2.10;99.90
25058;DHT22;13057;50.978;11.034;2023-04-03T06:38:37;2.20;99.90
25058;DHT22;13057;50.978;11.034;2023-04-03T06:41:03;2.20;99.90
25058;DHT22;13057;50.978;11.034;2023-04-03T06:43:29;2.20;99.90
25058;DHT22;13057;50.978;11.034;2023-04-03T06:45:56;2.20;99.90
25058;DHT22;13057;50.978;11.034;2023-04-03T06:48:22;2.20;99.90
25058;DHT22;13057;50.978;11.034;2023-04-03T06:50:49;2.30;99.90
25058;DHT22;13057;50.978;11.034;2023-04-03T06:53:15;2.30;99.90
25058;DHT22;13057;50.978;11.034;2023-04-03T06:55:41;2.20;99.90
25058;DHT22;13057;50.978;11.034;2023-04-03T06:58:07;2.30;99.90
25058;DHT22;13057;50.978;11.034;2023-04-03T07:00:34;2.30;99.90
25058;DHT22;13057;50.978;11.034;2023-04-03T07:03:00;2.20;99.90
25058;DHT22;13057;50.978;11.034;2023-04-03T07:05:26;2.30;99.90
25058;DHT22;13057;50.978;11.034;2023-04-03T07:07:54;2.40;99.90
25058;DHT22;13057;50.978;11.034;2023-04-03T07:10:21;2.60;99.90
25058;DHT22;13057;50.978;11.034;2023-04-03T07:12:47;2.70;99.90
25058;DHT22;13057;50.978;11.034;2023-04-03T07:15:12;2.60;99.90
25058;DHT22;13057;50.978;11.034;2023-04-03T07:17:42;2.70;99.90
25058;DHT22;13057;50.978;11.034;2023-04-03T07:20:09;2.70;99.90
25058;DHT22;13057;50.978;11.034;2023-04-03T07:22:34;2.80;99.90
25058;DHT22;13057;50.978;11.034;2023-04-03T07:25:00;3.00;99.90
25058;DHT22;13057;50.978;11.034;2023-04-03T07:27:26;3.10;99.90
25058;DHT22;13057;50.978;11.034;2023-04-03T07:29:52;3.10;99.90
25058;DHT22;13057;50.978;11.034;2023-04-03T07:32:18;3.20;99.90
25058;DHT22;13057;50.978;11.034;2023-04-03T07:34:44;3.50;99.90
25058;DHT22;13057;50.978;11.034;2023-04-03T07:37:10;3.70;99.90
25058;DHT22;13057;50.978;11.034;2023-04-03T07:39:36;3.80;99.90
25058;DHT22;13057;50.978;11.034;2023-04-03T07:42:02;3.80;99.90
25058;DHT22;13057;50.978;11.034;2023-04-03T07:44:28;3.60;99.90
25058;DHT22;13057;50.978;11.034;2023-04-03T07:46:54;3.60;99.90
25058;DHT22;13057;50.978;11.034;2023-04-03T07:49:21;3.60;99.90
25058;DHT22;13057;50.978;11.034;2023-04-03T07:51:49;3.70;99.90
25058;DHT22;13057;50.978;11.034;2023-04-03T07:54:15;3.70;99.90
25058;DHT22;13057;50.978;11.034;2023-04-03T07:56:42;3.80;99.90
25058;DHT22;13057;50.978;11.034;2023-04-03T07:59:09;3.60;99.90
25058;DHT22;13057;50.978;11.034;2023-04-03T08:01:36;3.50;99.90
25058;DHT22;13057;50.978;11.034;2023-04-03T08:04:02;3.40;99.90
25058;DHT22;13057;50.978;11.034;2023-04-03T08:06:28;3.30;99.90
25058;DHT22;13057;50.978;11.034;2023-04-03T08:08:55;3.40;99.90
25058;DHT22;13057;50.978;11.034;2023-04-03T08:11:21;3.40;99.80
25058;DHT22;13057;50.978;11.034;2023-04-03T08:13:47;3.40;99.40
25058;DHT22;13057;50.978;11.034;2023-04-03T08:16:17;3.40;99.20
25058;DHT22;13057;50.978;11.034;2023-04-03T08:18:44;3.40;99.20
25058;DHT22;13057;50.978;11.034;2023-04-03T08:21:11;3.50;99.20
25058;DHT22;13057;50.978;11.034;2023-04-03T08:23:38;3.50;99.10
25058;DHT22;13057;50.978;11.034;2023-04-03T08:26:09;3.60;99.10
25058;DHT22;13057;50.978;11.034;2023-04-03T08:28:35;3.50;99.10
25058;DHT22;13057;50.978;11.034;2023-04-03T08:31:05;3.50;98.60
25058;DHT22;13057;50.978;11.034;2023-04-03T08:33:33;3.50;98.20
25058;DHT22;13057;50.978;11.034;2023-04-03T08:35:59;3.40;97.80
25058;DHT22;13057;50.978;11.034;2023-04-03T08:38:25;3.40;97.60
25058;DHT22;13057;50.978;11.034;2023-04-03T08:41:05;3.50;97.40
25058;DHT22;13057;50.978;11.034;2023-04-03T08:44:07;3.80;98.10
25058;DHT22;13057;50.978;11.034;2023-04-03T08:46:49;4.00;96.70
25058;DHT22;13057;50.978;11.034;2023-04-03T08:49:31;4.10;96.70
25058;DHT22;13057;50.978;11.034;2023-04-03T08:52:00;4.20;95.90
25058;DHT22;13057;50.978;11.034;2023-04-03T08:54:33;4.30;96.10
25058;DHT22;13057;50.978;11.034;2023-04-03T08:57:02;4.30;96.20
25058;DHT22;13057;50.978;11.034;2023-04-03T08:59:34;4.30;96.40
25058;DHT22;13057;50.978;11.034;2023-04-03T09:02:03;4.50;95.70
25058;DHT22;13057;50.978;11.034;2023-04-03T09:04:32;4.60;95.70
25058;DHT22;13057;50.978;11.034;2023-04-03T09:07:09;4.80;96.10
25058;DHT22;13057;50.978;11.034;2023-04-03T09:09:41;4.90;95.50
25058;DHT22;13057;50.978;11.034;2023-04-03T09:12:20;4.80;95.00
25058;DHT22;13057;50.978;11.034;2023-04-03T09:15:11;4.80;94.50
25058;DHT22;13057;50.978;11.034;2023-04-03T09:17:51;4.80;94.80
25058;DHT22;13057;50.978;11.034;2023-04-03T09:20:39;4.80;94.50
25058;DHT22;13057;50.978;11.034;2023-04-03T09:23:20;4.80;94.70
25058;DHT22;13057;50.978;11.034;2023-04-03T09:25:48;4.80;94.50
25058;DHT22;13057;50.978;11.034;2023-04-03T09:28:15;5.00;94.80
25058;DHT22;13057;50.978;11.034;2023-04-03T09:30:41;5.40;94.40
25058;DHT22;13057;50.978;11.034;2023-04-03T09:33:08;5.60;94.50
25058;DHT22;13057;50.978;11.034;2023-04-03T09:35:36;5.70;94.00
25058;DHT22;13057;50.978;11.034;2023-04-03T09:38:20;5.60;93.90
25058;DHT22;13057;50.978;11.034;2023-04-03T09:40:51;5.50;92.90
25058;DHT22;13057;50.978;11.034;2023-04-03T09:43:31;5.40;92.80
25058;DHT22;13057;50.978;11.034;2023-04-03T09:46:18;5.50;92.90
25058;DHT22;13057;50.978;11.034;2023-04-03T09:48:51;5.70;92.50
25058;DHT22;13057;50.978;11.034;2023-04-03T09:51:17;5.60;92.10
25058;DHT22;13057;50.978;11.034;2023-04-03T09:53:45;5.40;92.50
25058;DHT22;13057;50.978;11.034;2023-04-03T09:56:24;5.30;91.30
25058;DHT22;13057;50.978;11.034;2023-04-03T09:59:07;5.30;91.30
25058;DHT22;13057;50.978;11.034;2023-04-03T10:01:37;5.40;91.60
25058;DHT22;13057;50.978;11.034;2023-04-03T10:04:15;5.50;91.40
25058;DHT22;13057;50.978;11.034;2023-04-03T10:06:43;5.80;91.30
25058;DHT22;13057;50.978;11.034;2023-04-03T10:09:23;5.70;91.40
25058;DHT22;13057;50.978;11.034;2023-04-03T10:12:00;5.70;91.30
25058;DHT22;13057;50.978;11.034;2023-04-03T10:14:29;5.80;91.50
25058;DHT22;13057;50.978;11.034;2023-04-03T10:17:22;5.80;90.80
25058;DHT22;13057;50.978;11.034;2023-04-03T10:19:57;5.80;91.00
25058;DHT22;13057;50.978;11.034;2023-04-03T10:22:44;5.60;89.40
25058;DHT22;13057;50.978;11.034;2023-04-03T10:25:32;5.70;90.20
25058;DHT22;13057;50.978;11.034;2023-04-03T10:28:05;5.90;90.20
25058;DHT22;13057;50.978;11.034;2023-04-03T10:31:16;6.20;90.40
25058;DHT22;13057;50.978;11.034;2023-04-03T10:33:53;6.40;91.20
25058;DHT22;13057;50.978;11.034;2023-04-03T10:36:36;6.30;90.90
25058;DHT22;13057;50.978;11.034;2023-04-03T10:42:08;6.30;91.50
25058;DHT22;13057;50.978;11.034;2023-04-03T10:45:03;6.20;90.20
25058;DHT22;13057;50.978;11.034;2023-04-03T10:51:12;6.00;89.20
25058;DHT22;13057;50.978;11.034;2023-04-03T10:54:13;5.90;90.00
25058;DHT22;13057;50.978;11.034;2023-04-03T10:56:48;5.90;89.70
25058;DHT22;13057;50.978;11.034;2023-04-03T10:59:18;6.00;90.30
25058;DHT22;13057;50.978;11.034;2023-04-03T11:01:54;6.00;90.40
25058;DHT22;13057;50.978;11.034;2023-04-03T11:04:20;6.00;90.40
25058;DHT22;13057;50.978;11.034;2023-04-03T11:06:53;6.20;89.80
25058;DHT22;13057;50.978;11.034;2023-04-03T11:09:27;6.20;89.70
25058;DHT22;13057;50.978;11.034;2023-04-03T11:12:01;6.20;90.10
25058;DHT22;13057;50.978;11.034;2023-04-03T11:14:31;6.20;90.00
25058;DHT22;13057;50.978;11.034;2023-04-03T11:17:09;6.40;90.50
25058;DHT22;13057;50.978;11.034;2023-04-03T11:22:45;6.30;88.30
25058;DHT22;13057;50.978;11.034;2023-04-03T11:25:19;6.00;85.80
25058;DHT22;13057;50.978;11.034;2023-04-03T11:27:54;6.10;87.20
25058;DHT22;13057;50.978;11.034;2023-04-03T11:30:29;6.40;87.00
25058;DHT22;13057;50.978;11.034;2023-04-03T11:33:14;6.60;86.70
25058;DHT22;13057;50.978;11.034;2023-04-03T11:35:46;6.70;86.50
25058;DHT22;13057;50.978;11.034;2023-04-03T11:38:19;6.60;88.00
25058;DHT22;13057;50.978;11.034;2023-04-03T11:40:47;6.60;89.40
25058;DHT22;13057;50.978;11.034;2023-04-03T11:43:22;6.70;89.50
25058;DHT22;13057;50.978;11.034;2023-04-03T11:45:57;6.80;88.00
25058;DHT22;13057;50.978;11.034;2023-04-03T11:48:45;6.70;87.70
25058;DHT22;13057;50.978;11.034;2023-04-03T11:51:39;6.40;86.70
25058;DHT22;13057;50.978;11.034;2023-04-03T11:59:58;6.70;86.90
25058;DHT22;13057;50.978;11.034;2023-04-03T12:02:36;6.70;87.10
25058;DHT22;13057;50.978;11.034;2023-04-03T12:05:25;6.80;85.70
25058;DHT22;13057;50.978;11.034;2023-04-03T12:08:23;6.90;84.90
25058;DHT22;13057;50.978;11.034;2023-04-03T12:14:04;7.30;85.50
25058;DHT22;13057;50.978;11.034;2023-04-03T12:16:45;7.20;84.20
25058;DHT22;13057;50.978;11.034;2023-04-03T12:19:33;7.20;86.80
25058;DHT22;13057;50.978;11.034;2023-04-03T12:22:11;7.10;88.90
25058;DHT22;13057;50.978;11.034;2023-04-03T12:24:39;7.00;88.40
25058;DHT22;13057;50.978;11.034;2023-04-03T12:27:20;6.90;88.20
25058;DHT22;13057;50.978;11.034;2023-04-03T12:29:55;6.80;87.90
25058;DHT22;13057;50.978;11.034;2023-04-03T12:32:41;6.80;88.20
25058;DHT22;13057;50.978;11.034;2023-04-03T12:35:29;6.90;87.20
25058;DHT22;13057;50.978;11.034;2023-04-03T12:38:21;6.80;84.60
25058;DHT22;13057;50.978;11.034;2023-04-03T12:41:18;6.90;84.80
25058;DHT22;13057;50.978;11.034;2023-04-03T12:44:03;7.00;85.70
25058;DHT22;13057;50.978;11.034;2023-04-03T12:46:38;7.10;83.30
25058;DHT22;13057;50.978;11.034;2023-04-03T12:52:25;7.10;81.00
25058;DHT22;13057;50.978;11.034;2023-04-03T12:54:55;7.10;81.30
25058;DHT22;13057;50.978;11.034;2023-04-03T12:57:26;7.00;79.90
25058;DHT22;13057;50.978;11.034;2023-04-03T12:59:54;7.00;79.50
25058;DHT22;13057;50.978;11.034;2023-04-03T13:02:23;7.10;80.50
25058;DHT22;13057;50.978;11.034;2023-04-03T13:04:51;7.20;81.30
25058;DHT22;13057;50.978;11.034;2023-04-03T13:07:29;7.50;82.80
25058;DHT22;13057;50.978;11.034;2023-04-03T13:10:04;7.60;82.00
25058;DHT22;13057;50.978;11.034;2023-04-03T13:12:46;7.50;81.90
25058;DHT22;13057;50.978;11.034;2023-04-03T13:15:16;7.40;83.30
25058;DHT22;13057;50.978;11.034;2023-04-03T13:17:43;7.40;81.90
25058;DHT22;13057;50.978;11.034;2023-04-03T13:20:18;7.10;81.20
25058;DHT22;13057;50.978;11.034;2023-04-03T13:23:00;7.10;81.10
25058;DHT22;13057;50.978;11.034;2023-04-03T13:25:29;7.20;80.90
25058;DHT22;13057;50.978;11.034;2023-04-03T13:27:58;7.40;79.30
25058;DHT22;13057;50.978;11.034;2023-04-03T13:30:29;7.40;79.50
25058;DHT22;13057;50.978;11.034;2023-04-03T13:32:57;7.40;80.20
25058;DHT22;13057;50.978;11.034;2023-04-03T13:35:28;7.40;81.30
25058;DHT22;13057;50.978;11.034;2023-04-03T13:37:58;7.50;79.80
25058;DHT22;13057;50.978;11.034;2023-04-03T13:40:24;7.50;79.40
25058;DHT22;13057;50.978;11.034;2023-04-03T13:43:00;7.40;79.80
25058;DHT22;13057;50.978;11.034;2023-04-03T13:45:33;7.40;78.80
25058;DHT22;13057;50.978;11.034;2023-04-03T13:48:10;7.40;80.10
25058;DHT22;13057;50.978;11.034;2023-04-03T13:50:57;7.40;80.20
25058;DHT22;13057;50.978;11.034;2023-04-03T13:53:24;7.20;79.90
25058;DHT22;13057;50.978;11.034;2023-04-03T13:56:07;7.20;79.70
25058;DHT22;13057;50.978;11.034;2023-04-03T13:58:34;7.30;80.20
25058;DHT22;13057;50.978;11.034;2023-04-03T14:01:19;7.30;81.00
25058;DHT22;13057;50.978;11.034;2023-04-03T14:03:53;7.40;82.50
25058;DHT22;13057;50.978;11.034;2023-04-03T14:06:19;7.50;81.50
25058;DHT22;13057;50.978;11.034;2023-04-03T14:08:46;7.40;81.30
25058;DHT22;13057;50.978;11.034;2023-04-03T14:11:16;7.30;80.40
25058;DHT22;13057;50.978;11.034;2023-04-03T14:13:44;7.20;80.60
25058;DHT22;13057;50.978;11.034;2023-04-03T14:16:15;7.10;81.20
25058;DHT22;13057;50.978;11.034;2023-04-03T14:18:43;7.20;81.00
25058;DHT22;13057;50.978;11.034;2023-04-03T14:21:12;7.30;81.90
25058;DHT22;13057;50.978;11.034;2023-04-03T14:23:38;7.40;82.40
25058;DHT22;13057;50.978;11.034;2023-04-03T14:26:15;7.20;82.70
25058;DHT22;13057;50.978;11.034;2023-04-03T14:28:42;7.00;83.20
25058;DHT22;13057;50.978;11.034;2023-04-03T14:31:10;7.10;83.40
25058;DHT22;13057;50.978;11.034;2023-04-03T14:33:37;7.20;82.10
25058;DHT22;13057;50.978;11.034;2023-04-03T14:36:15;7.30;81.90
25058;DHT22;13057;50.978;11.034;2023-04-03T14:38:42;7.30;79.80
25058;DHT22;13057;50.978;11.034;2023-04-03T14:41:13;7.30;78.50
25058;DHT22;13057;50.978;11.034;2023-04-03T14:43:40;7.50;78.30
25058;DHT22;13057;50.978;11.034;2023-04-03T14:46:14;7.50;79.10
25058;DHT22;13057;50.978;11.034;2023-04-03T14:48:41;7.50;79.30
25058;DHT22;13057;50.978;11.034;2023-04-03T14:51:08;7.30;79.50
25058;DHT22;13057;50.978;11.034;2023-04-03T14:53:35;7.10;79.80
25058;DHT22;13057;50.978;11.034;2023-04-03T14:56:12;7.00;80.40
25058;DHT22;13057;50.978;11.034;2023-04-03T14:58:38;6.90;80.30
25058;DHT22;13057;50.978;11.034;2023-04-03T15:01:04;6.90;80.10
25058;DHT22;13057;50.978;11.034;2023-04-03T15:03:30;6.90;81.10
25058;DHT22;13057;50.978;11.034;2023-04-03T15:05:56;6.90;82.20
25058;DHT22;13057;50.978;11.034;2023-04-03T15:08:26;7.10;81.10
25058;DHT22;13057;50.978;11.034;2023-04-03T15:10:55;6.90;80.40
25058;DHT22;13057;50.978;11.034;2023-04-03T15:13:22;6.90;81.30
25058;DHT22;13057;50.978;11.034;2023-04-03T15:15:50;6.90;81.70
25058;DHT22;13057;50.978;11.034;2023-04-03T15:18:20;7.00;82.20
25058;DHT22;13057;50.978;11.034;2023-04-03T15:20:48;7.00;80.10
25058;DHT22;13057;50.978;11.034;2023-04-03T15:23:15;6.90;79.80
25058;DHT22;13057;50.978;11.034;2023-04-03T15:25:43;6.90;81.80
25058;DHT22;13057;50.978;11.034;2023-04-03T15:28:19;6.90;81.40
25058;DHT22;13057;50.978;11.034;2023-04-03T15:30:48;6.90;80.50
25058;DHT22;13057;50.978;11.034;2023-04-03T15:33:13;6.80;80.30
25058;DHT22;13057;50.978;11.034;2023-04-03T15:35:41;6.90;80.50
25058;DHT22;13057;50.978;11.034;2023-04-03T15:38:08;6.90;80.60
25058;DHT22;13057;50.978;11.034;2023-04-03T15:40:34;6.80;81.10
25058;DHT22;13057;50.978;11.034;2023-04-03T15:43:00;6.70;81.60
25058;DHT22;13057;50.978;11.034;2023-04-03T15:45:28;6.70;81.40
25058;DHT22;13057;50.978;11.034;2023-04-03T15:47:55;6.80;82.00
25058;DHT22;13057;50.978;11.034;2023-04-03T15:50:21;7.00;82.20
25058;DHT22;13057;50.978;11.034;2023-04-03T15:52:50;7.00;81.00
25058;DHT22;13057;50.978;11.034;2023-04-03T15:55:21;6.90;79.80
25058;DHT22;13057;50.978;11.034;2023-04-03T15:57:48;6.80;80.60
25058;DHT22;13057;50.978;11.034;2023-04-03T16:00:14;6.80;80.70
25058;DHT22;13057;50.978;11.034;2023-04-03T16:02:41;6.70;81.70
25058;DHT22;13057;50.978;11.034;2023-04-03T16:05:09;6.60;82.00
25058;DHT22;13057;50.978;11.034;2023-04-03T16:07:37;6.60;82.80
25058;DHT22;13057;50.978;11.034;2023-04-03T16:10:04;6.60;83.60